Time;durP1;ratioP1;P1;durP2;ratioP2;P2;SDS_P1;SDS_P2;PMS_P1;PMS_P2;Temp;Humidity;BMP_temperature;BMP_pressure;BME280_temperature;BME280_humidity;BME280_pressure;Samples;Min_cycle;Max_cycle;Signal;HPM_P1;HPM_P2
2022/04/09 03:00:54;;;;;;;15.80;14.67;;;2.30;99.90;;;;;;5647561;23;20236;-74
2022/04/09 03:03:19;;;;;;;12.20;11.40;;;2.30;99.90;;;;;;4933417;29;20186;-74
2022/04/09 03:05:45;;;;;;;19.97;18.77;;;2.20;99.90;;;;;;4933825;29;20281;-74
2022/04/09 03:08:11;;;;;;;21.03;19.83;;;2.10;99.90;;;;;;4933333;29;20661;-75
2022/04/09 03:10:37;;;;;;;18.50;17.37;;;2.00;99.90;;;;;;4933788;29;20205;-74
2022/04/09 03:13:06;;;;;;;16.93;15.93;;;2.00;99.90;;;;;;4932446;29;20218;-74
2022/04/09 03:15:32;;;;;;;11.63;10.97;;;1.90;99.90;;;;;;4932529;29;20182;-73
2022/04/09 03:17:58;;;;;;;11.40;10.70;;;1.90;99.90;;;;;;4929932;29;20560;-73
2022/04/09 03:20:25;;;;;;;8.93;8.33;;;2.00;99.90;;;;;;4931763;29;20194;-73
2022/04/09 03:22:51;;;;;;;9.63;9.13;;;2.10;99.90;;;;;;4933443;29;20187;-75
2022/04/09 03:25:17;;;;;;;9.77;9.17;;;2.20;99.90;;;;;;4932266;29;20184;-74
2022/04/09 03:27:43;;;;;;;9.90;9.23;;;2.20;99.90;;;;;;4932400;29;20218;-72
2022/04/09 03:30:10;;;;;;;12.67;11.83;;;2.30;99.90;;;;;;4928910;29;20292;-74
2022/04/09 03:32:37;;;;;;;15.00;14.10;;;2.30;99.90;;;;;;4914381;29;20750;-72
2022/04/09 03:35:07;;;;;;;15.27;14.30;;;2.30;99.90;;;;;;4917018;29;20647;-73
2022/04/09 03:37:37;;;;;;;14.53;13.53;;;2.40;99.90;;;;;;4917566;29;20189;-73
2022/04/09 03:40:04;;;;;;;14.83;13.63;;;2.50;99.90;;;;;;4936141;29;20247;-73
2022/04/09 03:42:31;;;;;;;13.77;12.87;;;2.50;99.90;;;;;;4936567;29;20213;-73
2022/04/09 03:44:57;;;;;;;14.37;13.33;;;2.50;99.90;;;;;;4936856;29;20192;-73
2022/04/09 03:47:22;;;;;;;13.63;12.73;;;2.50;99.90;;;;;;4935588;29;20182;-73
2022/04/09 03:49:49;;;;;;;14.93;13.87;;;2.60;99.90;;;;;;4936422;29;20188;-73
2022/04/09 03:52:15;;;;;;;13.73;12.63;;;2.60;99.90;;;;;;4936840;29;20212;-73
2022/04/09 03:54:41;;;;;;;15.47;14.30;;;2.60;99.90;;;;;;4940618;29;20183;-73
2022/04/09 03:57:07;;;;;;;13.40;12.30;;;2.70;99.90;;;;;;4935217;29;20246;-73
2022/04/09 03:59:33;;;;;;;13.37;12.40;;;2.70;99.90;;;;;;4936039;29;20628;-73
2022/04/09 04:01:58;;;;;;;12.93;11.93;;;2.70;99.90;;;;;;4937429;29;20307;-75
2022/04/09 04:04:24;;;;;;;39.93;37.53;;;2.70;99.90;;;;;;4936544;29;20193;-74
2022/04/09 04:06:50;;;;;;;62.37;58.73;;;2.70;99.90;;;;;;4936262;29;20189;-73
2022/04/09 04:09:16;;;;;;;63.77;60.13;;;2.70;99.90;;;;;;4934845;29;20240;-74
2022/04/09 04:11:43;;;;;;;61.90;58.47;;;2.70;99.90;;;;;;4936004;29;20220;-74
2022/04/09 04:14:10;;;;;;;78.57;73.97;;;2.80;99.90;;;;;;4936576;29;20245;-74
2022/04/09 04:16:36;;;;;;;67.63;63.73;;;2.80;99.90;;;;;;4936350;29;20550;-74
2022/04/09 04:19:02;;;;;;;67.10;63.00;;;2.80;99.90;;;;;;4935216;29;20192;-74
2022/04/09 04:21:27;;;;;;;100.33;94.30;;;2.80;99.90;;;;;;4936182;29;20212;-74
2022/04/09 04:23:53;;;;;;;61.57;57.97;;;2.80;99.90;;;;;;4936048;29;20606;-74
2022/04/09 04:26:19;;;;;;;35.30;32.87;;;2.80;99.90;;;;;;4936040;29;20277;-73
2022/04/09 04:28:51;;;;;;;49.53;46.57;;;2.80;99.90;;;;;;4934331;29;20183;-73
2022/04/09 04:31:18;;;;;;;19.37;16.93;;;2.80;99.90;;;;;;4936165;29;20292;-73
2022/04/09 04:33:44;;;;;;;16.93;15.33;;;2.80;99.90;;;;;;4935824;29;20182;-73
2022/04/09 04:36:10;;;;;;;16.10;14.67;;;2.80;99.90;;;;;;4936738;29;20183;-71
2022/04/09 04:38:36;;;;;;;20.67;18.60;;;2.80;99.90;;;;;;4936026;29;20556;-74
2022/04/09 04:41:04;;;;;;;17.37;15.47;;;2.90;99.90;;;;;;4938171;29;20242;-73
2022/04/09 04:43:30;;;;;;;16.63;15.00;;;2.80;99.90;;;;;;4935900;29;20178;-72
2022/04/09 04:45:56;;;;;;;18.53;16.83;;;2.90;99.90;;;;;;4933467;29;20683;-73
2022/04/09 04:48:22;;;;;;;28.13;25.60;;;2.90;99.90;;;;;;4935177;29;20250;-73
2022/04/09 04:50:48;;;;;;;18.93;17.07;;;3.00;99.90;;;;;;4935366;29;20248;-73
2022/04/09 04:53:14;;;;;;;18.50;16.60;;;3.00;99.90;;;;;;4935747;29;20269;-73
2022/04/09 04:55:40;;;;;;;17.80;16.10;;;3.00;99.90;;;;;;4935479;29;20189;-73
2022/04/09 04:58:06;;;;;;;18.30;16.40;;;3.00;99.90;;;;;;4935059;29;20635;-74
2022/04/09 05:00:33;;;;;;;19.60;17.67;;;3.00;99.90;;;;;;4935662;29;20304;-73
2022/04/09 05:02:59;;;;;;;20.23;18.47;;;3.10;99.90;;;;;;4935478;29;20183;-72
2022/04/09 05:05:25;;;;;;;20.93;18.70;;;3.10;99.90;;;;;;4935494;29;20249;-73
2022/04/09 05:07:52;;;;;;;20.50;18.53;;;3.10;99.90;;;;;;4935295;29;20588;-72
2022/04/09 05:10:23;;;;;;;21.23;18.57;;;3.10;99.90;;;;;;4934777;29;20198;-72
2022/04/09 05:12:49;;;;;;;21.80;19.83;;;3.10;99.90;;;;;;4934158;29;20697;-73
2022/04/09 05:15:17;;;;;;;19.57;17.57;;;3.10;99.90;;;;;;4930058;29;20221;-73
2022/04/09 05:17:43;;;;;;;28.83;26.43;;;3.00;99.90;;;;;;4918762;29;20220;-76
2022/04/09 05:20:15;;;;;;;33.53;30.70;;;3.00;99.90;;;;;;4919961;29;20235;-74
2022/04/09 05:22:46;;;;;;;38.23;35.40;;;2.90;99.90;;;;;;4924209;29;20188;-73
2022/04/09 05:25:19;;;;;;;19.13;14.80;;;2.90;99.90;;;;;;4928043;29;20187;-73
2022/04/09 05:27:46;;;;;;;19.30;15.90;;;2.90;99.90;;;;;;4925833;29;20249;-73
2022/04/09 05:30:13;;;;;;;20.90;16.20;;;2.90;99.90;;;;;;4925732;29;20210;-74
2022/04/09 05:32:39;;;;;;;22.33;20.23;;;2.90;99.90;;;;;;4924653;29;20194;-73
2022/04/09 05:35:09;;;;;;;19.47;17.53;;;2.80;99.90;;;;;;4924153;29;20657;-74
2022/04/09 05:37:34;;;;;;;21.47;17.70;;;2.80;99.90;;;;;;4909873;29;20694;-74
2022/04/09 05:40:00;;;;;;;27.27;19.83;;;2.80;99.90;;;;;;4926188;29;20214;-73
2022/04/09 05:42:26;;;;;;;20.33;18.03;;;2.80;99.90;;;;;;4925352;29;20224;-74
2022/04/09 05:44:53;;;;;;;17.30;13.90;;;2.80;99.90;;;;;;4928153;29;20206;-74
2022/04/09 05:47:19;;;;;;;24.37;16.87;;;2.80;99.90;;;;;;4924598;29;20575;-74
2022/04/09 05:49:45;;;;;;;22.53;16.67;;;2.80;99.90;;;;;;4924686;29;20179;-74
2022/04/09 05:52:10;;;;;;;22.67;16.67;;;2.80;99.90;;;;;;4926232;29;20241;-73
2022/04/09 05:54:36;;;;;;;19.07;17.20;;;2.80;99.90;;;;;;4923143;29;20585;-74
2022/04/09 05:57:03;;;;;;;17.40;15.60;;;2.90;99.90;;;;;;4924776;29;20292;-74
2022/04/09 05:59:30;;;;;;;20.47;17.93;;;2.90;99.90;;;;;;4925400;29;20610;-74
2022/04/09 06:01:57;;;;;;;29.20;26.53;;;3.10;99.90;;;;;;4926060;29;20265;-74
2022/04/09 06:04:23;;;;;;;26.63;24.03;;;3.20;99.90;;;;;;4914753;29;20262;-74
2022/04/09 06:06:50;;;;;;;29.60;26.77;;;3.50;99.90;;;;;;4914427;29;20543;-73
2022/04/09 06:09:18;;;;;;;35.63;33.03;;;3.70;99.90;;;;;;4924827;29;20218;-72
2022/04/09 06:11:44;;;;;;;20.93;16.10;;;3.90;99.90;;;;;;4934195;29;20745;-73
2022/04/09 06:14:10;;;;;;;26.77;24.37;;;3.90;99.90;;;;;;4934605;29;20178;-75
2022/04/09 06:16:38;;;;;;;26.00;19.20;;;3.90;99.90;;;;;;4933702;29;20214;-71
2022/04/09 06:19:05;;;;;;;19.07;17.10;;;4.10;99.90;;;;;;4926538;29;20190;-71
2022/04/09 06:21:33;;;;;;;22.93;20.50;;;4.20;99.90;;;;;;4929508;29;20207;-71
2022/04/09 06:24:00;;;;;;;22.83;20.40;;;4.10;99.90;;;;;;4914994;29;20273;-72
2022/04/09 06:26:26;;;;;;;21.47;19.60;;;4.10;99.90;;;;;;4930877;29;20553;-71
2022/04/09 06:28:51;;;;;;;17.53;14.23;;;4.10;99.90;;;;;;4933090;29;20256;-71
2022/04/09 06:31:17;;;;;;;21.10;18.93;;;4.10;99.90;;;;;;4934123;29;20205;-71
2022/04/09 06:33:43;;;;;;;21.23;19.33;;;4.00;99.90;;;;;;4933656;29;20258;-72
2022/04/09 06:36:08;;;;;;;21.03;18.93;;;4.10;99.90;;;;;;4934005;29;20189;-72
2022/04/09 06:38:34;;;;;;;23.03;20.70;;;4.10;99.90;;;;;;4933359;29;20210;-71
2022/04/09 06:41:00;;;;;;;21.20;19.43;;;4.10;99.90;;;;;;4932290;29;20289;-71
2022/04/09 06:43:30;;;;;;;20.33;17.23;;;4.10;99.90;;;;;;4933811;29;20625;-70
2022/04/09 06:45:56;;;;;;;16.67;14.63;;;4.10;99.90;;;;;;4932394;29;20185;-70
2022/04/09 06:48:22;;;;;;;18.70;16.70;;;4.20;99.90;;;;;;4933370;29;20558;-70
2022/04/09 06:50:48;;;;;;;19.27;17.40;;;4.20;99.90;;;;;;4933568;29;20210;-69
2022/04/09 06:53:15;;;;;;;20.10;18.23;;;4.20;99.90;;;;;;4933768;29;20196;-69
2022/04/09 06:55:41;;;;;;;19.73;17.73;;;4.30;99.90;;;;;;4932868;29;20214;-69
2022/04/09 06:58:07;;;;;;;20.03;17.73;;;4.50;99.90;;;;;;4932827;29;20296;-70
2022/04/09 07:00:33;;;;;;;19.23;17.23;;;4.70;99.90;;;;;;4933773;29;20281;-70
2022/04/09 07:03:00;;;;;;;23.93;14.97;;;4.90;99.90;;;;;;4930320;29;20186;-70
2022/04/09 07:05:27;;;;;;;14.03;11.93;;;5.10;99.90;;;;;;4933417;29;20185;-70
2022/04/09 07:07:53;;;;;;;19.00;14.50;;;4.90;99.90;;;;;;4932235;29;20263;-70
2022/04/09 07:10:19;;;;;;;17.13;13.47;;;4.90;99.90;;;;;;4936107;29;20197;-69
2022/04/09 07:12:45;;;;;;;19.50;14.27;;;4.90;99.90;;;;;;4937772;29;20651;-70
2022/04/09 07:15:11;;;;;;;16.43;14.33;;;4.90;99.90;;;;;;4937781;29;20269;-70
2022/04/09 07:17:38;;;;;;;14.73;13.33;;;5.00;99.90;;;;;;4936906;29;20213;-70
2022/04/09 07:20:06;;;;;;;12.03;10.83;;;5.10;99.90;;;;;;4937812;29;20550;-70
2022/04/09 07:22:33;;;;;;;14.20;12.87;;;5.10;99.90;;;;;;4938869;29;20409;-70
2022/04/09 07:24:59;;;;;;;12.87;11.50;;;5.00;99.90;;;;;;4939313;29;20194;-70
2022/04/09 07:27:38;;;;;;;14.13;11.80;;;5.10;99.90;;;;;;4937424;29;20729;-70
2022/04/09 07:30:07;;;;;;;13.20;12.00;;;5.10;99.90;;;;;;4938123;29;20197;-70
2022/04/09 07:32:32;;;;;;;14.23;12.83;;;5.20;99.90;;;;;;4937401;29;20353;-70
2022/04/09 07:34:59;;;;;;;20.70;18.90;;;5.40;99.90;;;;;;4937544;29;20801;-70
2022/04/09 07:37:24;;;;;;;24.10;22.07;;;5.50;99.90;;;;;;4936699;29;20281;-70
2022/04/09 07:39:52;;;;;;;21.73;19.83;;;5.70;99.90;;;;;;4937258;29;20178;-70
2022/04/09 07:42:19;;;;;;;25.90;24.10;;;5.90;99.90;;;;;;4937130;29;20249;-70
2022/04/09 07:44:44;;;;;;;22.10;20.23;;;6.10;99.90;;;;;;4936001;29;20191;-69
2022/04/09 07:47:11;;;;;;;11.83;10.53;;;6.20;99.90;;;;;;4935350;29;20197;-70
2022/04/09 07:49:37;;;;;;;13.80;11.27;;;6.20;99.90;;;;;;4937006;29;20186;-70
2022/04/09 07:52:03;;;;;;;12.97;11.77;;;6.10;99.90;;;;;;4936847;29;20588;-69
2022/04/09 07:54:30;;;;;;;13.20;12.00;;;6.20;99.90;;;;;;4937274;29;20186;-69
2022/04/09 07:56:56;;;;;;;15.63;14.47;;;6.20;99.90;;;;;;4936404;29;20198;-69
2022/04/09 07:59:23;;;;;;;15.30;14.03;;;6.10;99.90;;;;;;4936881;29;20273;-70
2022/04/09 08:01:49;;;;;;;29.40;27.33;;;6.20;99.90;;;;;;4936802;29;20249;-69
2022/04/09 08:04:14;;;;;;;26.53;24.73;;;6.20;99.90;;;;;;4936936;29;20277;-69
2022/04/09 08:06:40;;;;;;;29.90;27.80;;;6.30;99.90;;;;;;4936222;29;20182;-70
2022/04/09 08:09:06;;;;;;;16.53;15.27;;;6.40;99.90;;;;;;4935208;29;20193;-70
2022/04/09 08:11:32;;;;;;;15.93;14.47;;;6.50;99.90;;;;;;4936595;29;20198;-70
2022/04/09 08:13:58;;;;;;;16.03;14.77;;;6.80;99.90;;;;;;4936724;29;20619;-70
2022/04/09 08:16:25;;;;;;;12.67;11.47;;;7.40;99.90;;;;;;4936590;29;20596;-69
2022/04/09 08:18:51;;;;;;;11.80;10.80;;;7.50;99.90;;;;;;4934756;29;20229;-69
2022/04/09 08:21:18;;;;;;;16.17;14.57;;;7.30;99.90;;;;;;4926852;29;20211;-69
2022/04/09 08:23:44;;;;;;;20.87;18.50;;;7.10;99.90;;;;;;4931824;29;20277;-70
2022/04/09 08:26:10;;;;;;;15.97;14.33;;;7.20;99.90;;;;;;4936026;29;20190;-75
2022/04/09 08:28:37;;;;;;;13.83;12.47;;;7.20;99.90;;;;;;4936567;29;20191;-75
2022/04/09 08:31:03;;;;;;;12.00;10.90;;;7.30;99.90;;;;;;4936433;29;20209;-73
2022/04/09 08:33:29;;;;;;;9.80;8.43;;;7.30;99.90;;;;;;4936416;29;20186;-76
2022/04/09 08:35:55;;;;;;;9.50;7.57;;;7.40;99.90;;;;;;4936079;29;20201;-74
2022/04/09 08:38:21;;;;;;;15.30;10.37;;;7.30;99.90;;;;;;4935823;29;20217;-75
2022/04/09 08:40:47;;;;;;;10.33;9.40;;;7.30;99.90;;;;;;4941268;29;20523;-77
2022/04/09 08:43:14;;;;;;;13.20;8.07;;;6.90;99.90;;;;;;4931585;29;20183;-74
2022/04/09 08:45:43;;;;;;;13.63;8.87;;;6.70;99.90;;;;;;4931765;29;20653;-74
2022/04/09 08:48:09;;;;;;;10.13;7.47;;;6.60;99.90;;;;;;4932578;29;20275;-74
2022/04/09 08:50:36;;;;;;;8.17;7.57;;;6.60;99.90;;;;;;4917906;29;20211;-75
2022/04/09 08:53:07;;;;;;;9.30;7.17;;;6.60;99.90;;;;;;4920281;29;20182;-74
2022/04/09 08:55:36;;;;;;;10.10;7.20;;;6.70;99.90;;;;;;4925513;29;20282;-74
2022/04/09 08:58:03;;;;;;;10.03;8.63;;;6.70;99.90;;;;;;4930374;29;20854;-74
2022/04/09 09:00:30;;;;;;;10.37;7.50;;;6.70;99.90;;;;;;4935578;29;20218;-74
2022/04/09 09:02:59;;;;;;;9.33;8.07;;;6.70;99.90;;;;;;4935647;29;20242;-74
2022/04/09 09:05:40;;;;;;;10.77;8.30;;;7.10;99.90;;;;;;4934487;29;20190;-74
2022/04/09 09:08:08;;;;;;;12.47;9.23;;;7.50;99.90;;;;;;4935079;29;20214;-74
2022/04/09 09:10:35;;;;;;;9.40;8.60;;;7.90;99.90;;;;;;4937373;29;20205;-74
2022/04/09 09:13:11;;;;;;;10.13;9.13;;;8.40;99.90;;;;;;4935941;29;20187;-74
2022/04/09 09:15:48;;;;;;;8.67;7.40;;;8.50;99.90;;;;;;4956202;23;20240;-78
2022/04/09 09:18:28;;;;;;;9.50;6.87;;;8.50;99.90;;;;;;4945807;29;20220;-77
2022/04/09 09:21:00;;;;;;;10.20;9.40;;;8.20;99.90;;;;;;4954609;28;20276;-77
2022/04/09 09:23:29;;;;;;;8.37;7.57;;;8.70;99.90;;;;;;4954240;29;20188;-77
2022/04/09 09:25:56;;;;;;;12.10;10.90;;;9.50;99.90;;;;;;4941604;29;20282;-77
2022/04/09 09:28:30;;;;;;;11.03;10.13;;;10.10;99.90;;;;;;4916347;29;20651;-77
2022/04/09 09:30:57;;;;;;;10.07;9.30;;;10.60;99.90;;;;;;4916236;29;20187;-77
2022/04/09 09:33:24;;;;;;;8.43;7.73;;;10.20;99.90;;;;;;4916273;29;20266;-77
2022/04/09 09:36:01;;;;;;;8.53;5.80;;;9.70;99.90;;;;;;4920533;29;20583;-77
2022/04/09 09:38:28;;;;;;;10.43;7.77;;;8.90;99.90;;;;;;4949381;29;20230;-78
2022/04/09 09:40:56;;;;;;;12.27;11.27;;;8.20;99.90;;;;;;4937218;29;20182;-77
2022/04/09 09:43:24;;;;;;;13.97;12.47;;;7.90;99.90;;;;;;4942854;29;20269;-77
2022/04/09 09:45:52;;;;;;;15.07;13.67;;;8.40;99.90;;;;;;4939091;29;20687;-77
2022/04/09 09:48:25;;;;;;;8.97;7.83;;;9.00;99.90;;;;;;4918059;29;20190;-77
2022/04/09 09:50:53;;;;;;;10.67;7.43;;;9.50;99.90;;;;;;4914797;29;20815;-77
2022/04/09 09:53:33;;;;;;;6.90;6.20;;;9.40;99.90;;;;;;4914520;29;20351;-77
2022/04/09 09:56:00;;;;;;;8.30;7.50;;;9.00;99.90;;;;;;4915735;29;20263;-77
2022/04/09 09:58:30;;;;;;;11.03;6.70;;;8.60;99.90;;;;;;4930581;29;20298;-77
2022/04/09 10:00:57;;;;;;;8.00;6.40;;;8.80;99.90;;;;;;4933801;29;20193;-77
2022/04/09 10:03:26;;;;;;;9.27;5.83;;;8.80;99.90;;;;;;4933373;29;20185;-77
2022/04/09 10:05:53;;;;;;;11.33;7.93;;;8.80;99.90;;;;;;4934938;29;20199;-78
2022/04/09 10:08:20;;;;;;;8.43;7.57;;;8.50;99.90;;;;;;4921375;29;20194;-76
2022/04/09 10:10:48;;;;;;;12.17;8.37;;;8.60;99.90;;;;;;4916088;29;20191;-78
2022/04/09 10:13:24;;;;;;;9.27;8.53;;;9.00;99.90;;;;;;4917251;29;20189;-78
2022/04/09 10:15:52;;;;;;;10.40;8.70;;;9.10;99.90;;;;;;4918188;29;20222;-78
2022/04/09 10:18:23;;;;;;;7.23;6.70;;;9.10;99.90;;;;;;4931099;29;20301;-78
2022/04/09 10:21:00;;;;;;;10.90;6.70;;;9.10;99.90;;;;;;4936753;29;20285;-78
2022/04/09 10:23:33;;;;;;;6.80;5.80;;;9.30;99.90;;;;;;4936994;29;20197;-77
2022/04/09 10:26:01;;;;;;;10.03;6.57;;;9.70;99.90;;;;;;4935137;29;20244;-78
2022/04/09 10:28:31;;;;;;;8.47;5.70;;;9.10;99.90;;;;;;4919150;29;20190;-78
2022/04/09 10:30:57;;;;;;;8.03;5.87;;;9.10;99.90;;;;;;4917074;29;20187;-77
2022/04/09 10:33:27;;;;;;;8.57;6.30;;;9.70;99.90;;;;;;4917513;29;20550;-77
2022/04/09 10:35:53;;;;;;;6.53;5.93;;;9.90;99.90;;;;;;4915545;29;20718;-78
2022/04/09 10:38:21;;;;;;;8.53;7.73;;;9.60;99.90;;;;;;4927746;29;20214;-77
2022/04/09 10:40:50;;;;;;;6.43;5.83;;;9.80;99.90;;;;;;4934612;29;20655;-77
2022/04/09 10:43:25;;;;;;;6.30;5.70;;;10.10;99.90;;;;;;4934606;29;20253;-78
2022/04/09 10:46:11;;;;;;;5.30;4.83;;;10.00;99.90;;;;;;4934571;29;20645;-77
2022/04/09 10:48:44;;;;;;;6.50;5.20;;;8.90;99.90;;;;;;4915584;29;20222;-77
2022/04/09 10:51:15;;;;;;;9.37;6.03;;;8.30;99.90;;;;;;4914155;29;20675;-77
2022/04/09 10:53:43;;;;;;;6.53;6.03;;;8.20;99.90;;;;;;4914439;29;20219;-77
2022/04/09 10:56:21;;;;;;;6.83;6.37;;;8.40;99.90;;;;;;4915906;29;20273;-78
2022/04/09 10:59:29;;;;;;;7.40;6.70;;;9.30;99.90;;;;;;4911369;29;20219;-78
2022/04/09 11:01:55;;;;;;;6.30;5.37;;;10.10;99.90;;;;;;4916375;29;20277;-78
2022/04/09 11:04:36;;;;;;;5.57;5.17;;;10.50;99.90;;;;;;4913059;29;20182;-77
2022/04/09 11:07:03;;;;;;;7.17;6.03;;;10.60;99.90;;;;;;4915771;29;20566;-77
2022/04/09 11:09:48;;;;;;;9.00;7.10;;;10.20;99.90;;;;;;4932456;29;20186;-77
2022/04/09 11:12:19;;;;;;;9.97;8.73;;;9.90;99.90;;;;;;4933286;29;20189;-77
2022/04/09 11:14:49;;;;;;;7.20;6.50;;;9.80;99.90;;;;;;4933903;29;20594;-78
2022/04/09 11:17:22;;;;;;;8.17;7.43;;;9.70;99.90;;;;;;4931672;29;20239;-78
2022/04/09 11:19:49;;;;;;;6.00;5.17;;;9.50;99.90;;;;;;4918947;29;20226;-77
2022/04/09 11:22:15;;;;;;;6.90;4.90;;;9.10;99.90;;;;;;4931242;29;20187;-78
2022/04/09 11:24:41;;;;;;;7.17;6.53;;;9.40;99.90;;;;;;4933383;29;20215;-78
2022/04/09 11:27:07;;;;;;;7.33;5.37;;;9.40;99.90;;;;;;4929142;29;20182;-78
2022/04/09 11:29:38;;;;;;;6.73;4.93;;;9.30;99.90;;;;;;4936681;29;20547;-77
2022/04/09 11:32:04;;;;;;;9.23;5.43;;;8.90;99.90;;;;;;4936855;29;20190;-78
2022/04/09 11:34:50;;;;;;;14.27;6.57;;;8.60;99.90;;;;;;4936651;29;20209;-78
2022/04/09 11:37:16;;;;;;;19.60;12.57;;;8.50;99.90;;;;;;4931707;29;20631;-78
2022/04/09 11:39:43;;;;;;;14.90;11.13;;;8.60;99.90;;;;;;4917961;29;20175;-78
2022/04/09 11:42:10;;;;;;;8.03;6.40;;;8.80;99.90;;;;;;4916532;29;20198;-78
2022/04/09 11:44:36;;;;;;;9.03;7.47;;;9.40;99.90;;;;;;4920369;29;20183;-78
2022/04/09 11:47:16;;;;;;;8.83;7.30;;;11.00;99.90;;;;;;4929723;29;20186;-78
2022/04/09 11:49:49;;;;;;;5.37;4.80;;;11.70;99.90;;;;;;4939075;29;20269;-78
2022/04/09 11:52:28;;;;;;;9.10;4.30;;;12.80;99.90;;;;;;4949941;29;20186;-78
2022/04/09 11:54:55;;;;;;;8.37;4.67;;;13.70;99.90;;;;;;4946893;29;20561;-78
2022/04/09 11:57:22;;;;;;;6.20;4.50;;;13.00;99.50;;;;;;4934101;29;20571;-78
2022/04/09 11:59:53;;;;;;;5.93;4.53;;;13.40;99.70;;;;;;4920685;29;20194;-78
2022/04/09 12:02:24;;;;;;;5.50;4.60;;;12.70;95.60;;;;;;4919921;29;20197;-79
2022/04/09 12:04:51;;;;;;;5.77;5.10;;;11.60;98.10;;;;;;4920007;29;20206;-78
2022/04/09 12:07:18;;;;;;;4.90;4.50;;;11.00;99.90;;;;;;4922645;29;20187;-78
2022/04/09 12:09:45;;;;;;;4.87;4.53;;;12.00;99.90;;;;;;4939003;29;20325;-78
2022/04/09 12:12:11;;;;;;;5.67;5.10;;;12.40;99.90;;;;;;4952683;29;20185;-78
2022/04/09 12:14:39;;;;;;;5.37;4.87;;;12.90;99.90;;;;;;4940414;29;20200;-78
2022/04/09 12:17:13;;;;;;;7.20;4.50;;;14.10;97.10;;;;;;4935713;29;20587;-78
2022/04/09 12:19:43;;;;;;;6.03;5.50;;;14.10;96.30;;;;;;4923996;29;20190;-78
2022/04/09 12:22:24;;;;;;;6.83;5.80;;;15.00;94.10;;;;;;4934195;29;20190;-78
2022/04/09 12:24:57;;;;;;;6.40;5.43;;;15.30;92.80;;;;;;4925131;29;20227;-78
2022/04/09 12:27:46;;;;;;;6.07;5.67;;;13.70;94.40;;;;;;4927070;29;20666;-78
2022/04/09 12:30:13;;;;;;;6.30;5.70;;;14.20;93.60;;;;;;4939754;29;20277;-78
2022/04/09 12:32:41;;;;;;;5.57;5.07;;;14.70;93.60;;;;;;4937910;29;20229;-78
2022/04/09 12:35:08;;;;;;;4.80;4.37;;;14.90;91.80;;;;;;4937290;29;20214;-78
2022/04/09 12:37:48;;;;;;;4.57;4.20;;;14.20;89.10;;;;;;4933856;29;20582;-78
2022/04/09 12:40:15;;;;;;;5.43;4.67;;;13.40;92.00;;;;;;4938011;29;20205;-78
2022/04/09 12:42:41;;;;;;;4.33;4.10;;;12.50;93.10;;;;;;4941159;29;20202;-78
2022/04/09 12:45:20;;;;;;;5.13;4.63;;;12.50;93.40;;;;;;4939382;29;20562;-78
2022/04/09 12:47:58;;;;;;;7.73;5.27;;;12.20;92.10;;;;;;4927722;29;20191;-79
2022/04/09 12:50:35;;;;;;;6.70;4.30;;;11.70;95.40;;;;;;4917499;29;20190;-78
2022/04/09 12:53:05;;;;;;;4.97;4.53;;;12.60;92.40;;;;;;4918941;29;20187;-78
2022/04/09 12:55:32;;;;;;;6.13;4.57;;;12.10;93.90;;;;;;4919481;29;20222;-78
2022/04/09 12:58:00;;;;;;;5.03;4.63;;;12.00;94.00;;;;;;4932604;29;20213;-78
2022/04/09 13:00:31;;;;;;;5.57;4.93;;;11.80;95.40;;;;;;4946004;29;20278;-78
2022/04/09 13:02:58;;;;;;;9.47;8.50;;;11.70;95.80;;;;;;4947630;29;20184;-78
2022/04/09 13:05:23;;;;;;;7.00;5.90;;;12.20;95.70;;;;;;4944608;29;20207;-78
2022/04/09 13:07:49;;;;;;;6.00;5.43;;;13.20;92.50;;;;;;4930822;29;20190;-78
2022/04/09 13:10:15;;;;;;;6.93;5.60;;;14.00;92.30;;;;;;4920678;29;20277;-78
2022/04/09 13:12:42;;;;;;;4.77;4.33;;;13.00;90.30;;;;;;4918573;29;20282;-77
2022/04/09 13:15:09;;;;;;;10.53;7.40;;;12.00;91.90;;;;;;4917374;29;20588;-78
2022/04/09 13:17:35;;;;;;;7.43;6.83;;;11.20;92.60;;;;;;4919999;29;20218;-77
2022/04/09 13:20:09;;;;;;;13.73;9.67;;;11.00;94.40;;;;;;4938389;29;20183;-78
2022/04/09 13:22:36;;;;;;;10.20;8.70;;;11.60;96.00;;;;;;4937775;29;20200;-78
2022/04/09 13:25:03;;;;;;;5.30;4.90;;;11.90;94.80;;;;;;4938207;29;20698;-78
2022/04/09 13:27:30;;;;;;;6.23;5.70;;;13.20;92.70;;;;;;4932412;29;20646;-78
2022/04/09 13:30:00;;;;;;;7.27;6.53;;;13.20;88.90;;;;;;4919232;29;20229;-77
2022/04/09 13:32:26;;;;;;;15.57;12.53;;;12.50;90.80;;;;;;4919314;29;20206;-78
2022/04/09 13:34:52;;;;;;;10.30;8.60;;;13.30;91.00;;;;;;4917692;29;20695;-77
2022/04/09 13:37:20;;;;;;;8.20;7.40;;;13.80;89.60;;;;;;4917706;29;20244;-77
2022/04/09 13:39:46;;;;;;;6.87;6.17;;;13.60;89.40;;;;;;4935763;29;20359;-78
2022/04/09 13:42:12;;;;;;;5.33;4.77;;;14.50;89.50;;;;;;4938208;29;20183;-78
2022/04/09 13:44:38;;;;;;;5.80;5.27;;;16.00;83.80;;;;;;4937829;29;20183;-78
2022/04/09 13:47:06;;;;;;;4.87;4.57;;;15.70;79.20;;;;;;4935701;29;20182;-78
2022/04/09 13:49:32;;;;;;;5.57;5.17;;;14.30;79.50;;;;;;4917346;29;20600;-78
2022/04/09 13:51:58;;;;;;;8.00;4.77;;;14.20;79.90;;;;;;4917608;29;20191;-78
2022/04/09 13:54:24;;;;;;;5.67;4.87;;;13.60;79.80;;;;;;4919817;29;20242;-78
2022/04/09 13:56:49;;;;;;;5.13;4.73;;;13.70;78.60;;;;;;4926753;29;20231;-78
2022/04/09 13:59:18;;;;;;;5.03;4.63;;;13.90;76.70;;;;;;4943811;29;20213;-78
2022/04/09 14:01:44;;;;;;;6.93;4.10;;;14.70;76.80;;;;;;4942067;29;20624;-78
2022/04/09 14:04:10;;;;;;;6.77;4.57;;;15.70;72.50;;;;;;4949729;29;20185;-78
2022/04/09 14:06:36;;;;;;;5.80;4.53;;;16.10;71.60;;;;;;4946303;29;20203;-78
2022/04/09 14:09:01;;;;;;;5.23;4.83;;;16.40;64.40;;;;;;4924140;29;20657;-77
2022/04/09 14:11:28;;;;;;;6.70;4.30;;;15.00;69.90;;;;;;4914901;29;20183;-77
2022/04/09 14:13:54;;;;;;;5.33;4.30;;;14.40;73.90;;;;;;4914730;29;20179;-77
2022/04/09 14:16:20;;;;;;;6.57;4.97;;;14.00;74.80;;;;;;4915315;29;20575;-77
2022/04/09 14:18:46;;;;;;;6.80;5.57;;;12.50;78.60;;;;;;4920543;29;20218;-77
2022/04/09 14:21:13;;;;;;;6.00;5.33;;;11.30;82.00;;;;;;4916248;29;20188;-79
2022/04/09 14:23:38;;;;;;;5.90;5.40;;;10.80;84.80;;;;;;4915404;29;20185;-77
2022/04/09 14:26:04;;;;;;;6.10;5.37;;;11.90;84.90;;;;;;4914197;29;20313;-77
2022/04/09 14:28:30;;;;;;;5.90;5.07;;;13.80;82.80;;;;;;4925595;29;20190;-78
2022/04/09 14:30:56;;;;;;;5.60;5.10;;;14.80;78.50;;;;;;4934378;29;20190;-77
2022/04/09 14:33:22;;;;;;;5.87;5.33;;;15.40;72.90;;;;;;4933968;29;20658;-77
2022/04/09 14:35:49;;;;;;;5.53;4.90;;;13.50;76.60;;;;;;4934069;29;20210;-77
2022/04/09 14:38:14;;;;;;;6.70;4.77;;;12.80;80.70;;;;;;4933810;29;20210;-85
2022/04/09 14:40:40;;;;;;;9.83;4.17;;;13.50;81.50;;;;;;4935703;29;20653;-80
2022/04/09 14:43:06;;;;;;;4.30;4.00;;;14.10;77.20;;;;;;4923777;29;20187;-81
2022/04/09 14:45:32;;;;;;;6.20;4.07;;;14.40;73.90;;;;;;4921916;29;20218;-80
2022/04/09 14:47:58;;;;;;;7.57;4.37;;;15.00;73.30;;;;;;4924809;29;20206;-76
2022/04/09 14:50:24;;;;;;;5.13;4.53;;;15.30;69.90;;;;;;4919499;29;20197;-78
2022/04/09 14:52:50;;;;;;;5.50;4.27;;;14.50;72.80;;;;;;4921149;29;20182;-78
2022/04/09 14:55:15;;;;;;;4.70;4.30;;;13.60;73.30;;;;;;4922105;29;20263;-78
2022/04/09 14:57:41;;;;;;;5.73;4.60;;;13.20;77.60;;;;;;4912936;29;20635;-77
2022/04/09 15:00:10;;;;;;;11.53;8.43;;;12.20;76.70;;;;;;4913836;29;20618;-78
2022/04/09 15:02:39;;;;;;;6.73;6.10;;;11.50;82.90;;;;;;4915010;29;20189;-78
2022/04/09 15:05:07;;;;;;;5.47;4.30;;;13.20;80.40;;;;;;4914958;29;20213;-78
2022/04/09 15:07:34;;;;;;;4.93;4.50;;;14.50;74.00;;;;;;4914891;29;20639;-78
2022/04/09 15:10:01;;;;;;;4.60;4.20;;;14.20;71.50;;;;;;4934049;29;20186;-78
2022/04/09 15:12:27;;;;;;;4.70;4.27;;;13.20;74.10;;;;;;4933894;29;20183;-78
2022/04/09 15:14:52;;;;;;;3.80;3.53;;;12.20;78.90;;;;;;4957576;23;20214;-76
2022/04/09 15:17:18;;;;;;;22.00;16.40;;;11.50;79.10;;;;;;4968740;28;20219;-73
2022/04/09 15:19:44;;;;;;;6.10;5.53;;;11.20;83.60;;;;;;4966658;28;20207;-75
2022/04/09 15:22:11;;;;;;;7.00;6.30;;;11.30;81.90;;;;;;4972583;28;20192;-75
2022/04/09 15:24:37;;;;;;;5.87;5.30;;;11.60;82.60;;;;;;4973267;28;20188;-76
2022/04/09 15:27:03;;;;;;;6.53;5.10;;;11.20;85.50;;;;;;4952933;28;20206;-75
2022/04/09 15:29:31;;;;;;;5.37;4.83;;;10.90;90.10;;;;;;4936608;28;20620;-75
2022/04/09 15:31:57;;;;;;;5.97;5.33;;;11.30;89.20;;;;;;4936247;29;20214;-74
2022/04/09 15:34:23;;;;;;;5.73;4.93;;;11.90;83.00;;;;;;4936194;29;20182;-74
2022/04/09 15:36:49;;;;;;;5.90;5.47;;;12.00;79.10;;;;;;4936948;29;20217;-75
2022/04/09 15:39:14;;;;;;;4.60;4.20;;;13.10;77.30;;;;;;4948131;29;20665;-75
2022/04/09 15:41:42;;;;;;;4.67;4.27;;;14.10;74.00;;;;;;4957546;29;20185;-75
2022/04/09 15:44:08;;;;;;;5.37;4.10;;;14.10;70.10;;;;;;4970300;29;20256;-75
2022/04/09 15:46:35;;;;;;;4.70;4.23;;;13.70;72.00;;;;;;4957807;28;20293;-75